Time;durP1;ratioP1;P1;durP2;ratioP2;P2;SDS_P1;SDS_P2;PMS_P1;PMS_P2;Temp;Humidity;BMP_temperature;BMP_pressure;BME280_temperature;BME280_humidity;BME280_pressure;Samples;Min_cycle;Max_cycle;Signal;HPM_P1;HPM_P2
2024/02/04 00:01:04;;;;;;;;;;;;;;;-144.99;100.00;52547.97;5046727;28;19951;-68
2024/02/04 00:03:31;;;;;;;;;;;;;;;-144.99;100.00;52574.47;5050817;28;19976;-69
2024/02/04 00:05:59;;;;;;;;;;;;;;;-144.99;100.00;52570.38;5043030;28;19933;-66
2024/02/04 00:08:25;;;;;;;;;;;;;;;-144.99;100.00;52582.63;5046383;28;19937;-65
2024/02/04 00:10:52;;;;;;;;;;;;;;;-144.99;100.00;52554.09;5046295;28;19986;-66
2024/02/04 00:13:18;;;;;;;;;;;;;;;-144.99;100.00;52588.75;5045712;28;20053;-64
2024/02/04 00:15:45;;;;;;;;;;;;;;;-144.99;100.00;52570.38;5044723;28;19982;-66
2024/02/04 00:18:11;;;;;;;;;;;;;;;-144.99;100.00;52562.25;5045112;28;19932;-65
2024/02/04 00:20:38;;;;;;;;;;;;;;;-144.99;100.00;52586.69;5048613;28;19964;-64
2024/02/04 00:23:05;;;;;;;;;;;;;;;-144.99;100.00;52566.31;5054137;28;20282;-65
2024/02/04 00:25:31;;;;;;;;;;;;;;;-144.99;100.00;52598.94;5042720;28;20587;-64
2024/02/04 00:27:57;;;;;;;;;;;;;;;-144.99;100.00;52550.00;5045421;28;20082;-69
2024/02/04 00:30:24;;;;;;;;;;;;;;;-144.99;100.00;52550.00;5044644;28;19936;-70
2024/02/04 00:32:50;;;;;;;;;;;;;;;-144.99;100.00;52574.47;5050258;28;19997;-71
2024/02/04 00:35:17;;;;;;;;;;;;;;;-144.99;100.00;52582.63;5046237;28;20401;-71
2024/02/04 00:37:43;;;;;;;;;;;;;;;-144.99;100.00;52576.50;5047963;28;20019;-74
2024/02/04 00:40:12;;;;;;;;;;;;;;;-144.99;100.00;52570.38;5049195;28;20011;-71
2024/02/04 00:42:39;;;;;;;;;;;;;;;-144.99;100.00;52582.63;5049219;28;20339;-71
2024/02/04 00:45:05;;;;;;;;;;;;;;;-144.99;100.00;52586.69;5048480;28;20021;-72
2024/02/04 00:47:32;;;;;;;;;;;;;;;-144.99;100.00;52560.19;5052747;28;19974;-72
2024/02/04 00:49:58;;;;;;;;;;;;;;;-144.99;100.00;52594.84;5050380;28;19978;-72
2024/02/04 00:52:25;;;;;;;;;;;;;;;-144.99;100.00;52570.38;5048871;28;19928;-72
2024/02/04 00:54:51;;;;;;;;;;;;;;;-144.99;100.00;52570.38;5049490;28;20024;-72
2024/02/04 00:57:19;;;;;;;;;;;;;;;-144.99;100.00;52590.78;5045252;28;20442;-72
2024/02/04 00:59:46;;;;;;;;;;;;;;;-144.99;100.00;52578.53;5051816;28;19936;-71
2024/02/04 01:02:12;;;;;;;;;;;;;;;-144.99;100.00;52590.78;5047349;28;20024;-73
2024/02/04 01:04:39;;;;;;;;;;;;;;;-144.99;100.00;52615.25;5047615;28;19928;-70
2024/02/04 01:07:05;;;;;;;;;;;;;;;-144.99;100.00;52578.53;5043367;28;20012;-70
2024/02/04 01:09:32;;;;;;;;;;;;;;;-144.99;100.00;52584.66;5044468;28;20020;-69
2024/02/04 01:11:58;;;;;;;;;;;;;;;-144.99;100.00;52562.25;5045500;28;19933;-69
2024/02/04 01:14:26;;;;;;;;;;;;;;;-144.99;100.00;52574.47;5044859;28;20011;-69
2024/02/04 01:16:53;;;;;;;;;;;;;;;-144.99;100.00;52572.44;5046539;28;20300;-70
2024/02/04 01:19:19;;;;;;;;;;;;;;;-144.99;100.00;52582.63;5044906;28;19948;-71
2024/02/04 01:21:46;;;;;;;;;;;;;;;-144.99;100.00;52570.38;5047079;28;19972;-69
2024/02/04 01:24:12;;;;;;;;;;;;;;;-144.99;100.00;52550.00;5045214;28;20051;-69
2024/02/04 01:26:38;;;;;;;;;;;;;;;-144.99;100.00;52578.53;5043090;28;19924;-69
2024/02/04 01:29:05;;;;;;;;;;;;;;;-144.99;100.00;52594.84;5046885;28;20016;-69
2024/02/04 01:31:33;;;;;;;;;;;;;;;-144.99;100.00;52562.25;5044191;28;19986;-68
2024/02/04 01:33:59;;;;;;;;;;;;;;;-144.99;100.00;52554.09;5044724;28;20025;-70
2024/02/04 01:36:26;;;;;;;;;;;;;;;-144.99;100.00;52594.84;5045500;28;19925;-71
2024/02/04 01:38:52;;;;;;;;;;;;;;;-144.99;100.00;52562.25;5040787;28;20026;-70
2024/02/04 01:41:19;;;;;;;;;;;;;;;-144.99;100.00;52541.84;5046276;28;20121;-69
2024/02/04 01:43:45;;;;;;;;;;;;;;;-144.99;100.00;52562.25;5045852;28;19983;-70
2024/02/04 01:46:12;;;;;;;;;;;;;;;-144.99;100.00;52572.44;5051823;28;19950;-70
2024/02/04 01:48:40;;;;;;;;;;;;;;;-144.99;100.00;52576.50;5042370;28;20056;-70
2024/02/04 01:51:07;;;;;;;;;;;;;;;-144.99;100.00;52523.50;5047929;28;19964;-70
2024/02/04 01:53:35;;;;;;;;;;;;;;;-144.99;100.00;52584.66;5045294;28;19947;-70
2024/02/04 01:56:01;;;;;;;;;;;;;;;-144.99;100.00;52541.84;5045973;28;19972;-70
2024/02/04 01:58:28;;;;;;;;;;;;;;;-144.99;100.00;52578.53;4695789;28;10000520;-71
2024/02/04 02:00:54;;;;;;;;;;;;;;;-144.99;100.00;52570.38;5043661;28;19968;-70
2024/02/04 02:03:22;;;;;;;;;;;;;;;-144.99;100.00;52525.56;5045131;28;19975;-70
2024/02/04 02:05:50;;;;;;;;;;;;;;;-144.99;100.00;52539.81;5047891;28;20044;-72
2024/02/04 02:08:17;;;;;;;;;;;;;;;-144.99;100.00;52545.94;5031545;28;19935;-71
2024/02/04 02:10:47;;;;;;;;;;;;;;;-144.99;100.00;52545.94;5046114;28;19933;-70
2024/02/04 02:13:17;;;;;;;;;;;;;;;-144.99;100.00;52554.09;5045365;28;19928;-70
2024/02/04 02:15:45;;;;;;;;;;;;;;;-144.99;100.00;52570.38;5050767;28;20097;-70
2024/02/04 02:18:15;;;;;;;;;;;;;;;-144.99;100.00;52529.63;5052944;28;19971;-70
2024/02/04 02:20:47;;;;;;;;;;;;;;;-144.99;100.00;52550.00;5046104;28;20302;-65
2024/02/04 02:23:16;;;;;;;;;;;;;;;-144.99;100.00;52566.31;5048872;28;19971;-66
2024/02/04 02:25:46;;;;;;;;;;;;;;;-144.99;100.00;52566.31;5048138;28;20006;-66
2024/02/04 02:28:13;;;;;;;;;;;;;;;-144.99;100.00;52533.69;5050911;28;20382;-70
2024/02/04 02:30:39;;;;;;;;;;;;;;;-144.99;100.00;52545.94;5049345;28;19925;-69
2024/02/04 02:33:06;;;;;;;;;;;;;;;-144.99;100.00;52560.19;5050942;28;20007;-70
2024/02/04 02:35:32;;;;;;;;;;;;;;;-144.99;100.00;52582.63;5050525;28;19925;-69
2024/02/04 02:38:05;;;;;;;;;;;;;;;-144.99;100.00;52560.19;5050095;28;19968;-69
2024/02/04 02:40:35;;;;;;;;;;;;;;;-144.99;100.00;52578.53;5047319;28;20194;-70
2024/02/04 02:43:04;;;;;;;;;;;;;;;-144.99;100.00;52578.53;5050610;28;19971;-70
2024/02/04 02:45:31;;;;;;;;;;;;;;;-144.99;100.00;52537.78;5050297;28;20134;-69
2024/02/04 02:47:58;;;;;;;;;;;;;;;-144.99;100.00;52566.31;5043441;28;20341;-69
2024/02/04 02:50:25;;;;;;;;;;;;;;;-144.99;100.00;52558.16;5049706;28;19979;-65
2024/02/04 02:52:51;;;;;;;;;;;;;;;-144.99;100.00;52611.16;5050792;28;20062;-65
2024/02/04 02:55:18;;;;;;;;;;;;;;;-144.99;100.00;52578.53;5055343;28;20040;-65
2024/02/04 02:57:44;;;;;;;;;;;;;;;-144.99;100.00;52525.56;5053071;28;20011;-65
2024/02/04 03:00:13;;;;;;;;;;;;;;;-144.99;100.00;52554.09;5047284;28;19939;-74
2024/02/04 03:02:40;;;;;;;;;;;;;;;-144.99;100.00;52558.16;5042514;28;19963;-70
2024/02/04 03:05:07;;;;;;;;;;;;;;;-144.99;100.00;52582.63;5058832;28;19925;-69
2024/02/04 03:07:33;;;;;;;;;;;;;;;-144.99;100.00;52598.94;5052826;28;20510;-70
2024/02/04 03:09:59;;;;;;;;;;;;;;;-144.99;100.00;52574.47;5050842;28;19984;-65
2024/02/04 03:12:26;;;;;;;;;;;;;;;-144.99;100.00;52541.84;5056203;28;19972;-66
2024/02/04 03:14:52;;;;;;;;;;;;;;;-144.99;100.00;52554.09;5050011;28;20223;-66
2024/02/04 03:17:20;;;;;;;;;;;;;;;-144.99;100.00;52529.63;5053679;28;20031;-66
2024/02/04 03:19:47;;;;;;;;;;;;;;;-144.99;100.00;52598.94;5050309;28;19925;-66
2024/02/04 03:22:13;;;;;;;;;;;;;;;-144.99;100.00;52586.69;5047761;28;20301;-66
2024/02/04 03:24:40;;;;;;;;;;;;;;;-144.99;100.00;52619.31;5053427;28;20007;-65
2024/02/04 03:27:06;;;;;;;;;;;;;;;-144.99;100.00;52607.09;5052493;28;19975;-66
2024/02/04 03:29:33;;;;;;;;;;;;;;;-144.99;100.00;52590.78;5049881;28;19960;-66
2024/02/04 03:32:00;;;;;;;;;;;;;;;-144.99;100.00;52570.38;5049497;28;20018;-66
2024/02/04 03:34:27;;;;;;;;;;;;;;;-144.99;100.00;52550.00;5049733;28;20019;-66
2024/02/04 03:36:54;;;;;;;;;;;;;;;-144.99;100.00;52578.53;5052165;28;19925;-66
2024/02/04 03:39:21;;;;;;;;;;;;;;;-144.99;100.00;52605.03;5050796;28;20266;-66
2024/02/04 03:41:47;;;;;;;;;;;;;;;-144.99;100.00;52550.00;5048131;28;20082;-69
2024/02/04 03:44:14;;;;;;;;;;;;;;;-144.99;100.00;52525.56;5057272;28;19950;-70
2024/02/04 03:46:40;;;;;;;;;;;;;;;-144.99;100.00;52598.94;5053948;28;19929;-70
2024/02/04 03:49:07;;;;;;;;;;;;;;;-144.99;100.00;52566.31;5052390;28;19990;-70
2024/02/04 03:51:35;;;;;;;;;;;;;;;-144.99;100.00;52545.94;5048303;28;20347;-70
2024/02/04 03:54:01;;;;;;;;;;;;;;;-144.99;100.00;52578.53;5051329;28;20210;-66
2024/02/04 03:56:28;;;;;;;;;;;;;;;-144.99;100.00;52562.25;5049644;28;19979;-67
2024/02/04 03:58:54;;;;;;;;;;;;;;;-144.99;100.00;52623.38;5051490;28;19964;-67
2024/02/04 04:01:21;;;;;;;;;;;;;;;-144.99;100.00;52578.53;5050598;28;19925;-66
2024/02/04 04:03:47;;;;;;;;;;;;;;;-144.99;100.00;52566.31;5048251;28;20376;-66
2024/02/04 04:06:13;;;;;;;;;;;;;;;-144.99;100.00;52570.38;5051600;28;19967;-68
2024/02/04 04:08:41;;;;;;;;;;;;;;;-144.99;100.00;52562.25;5052960;28;19928;-68
2024/02/04 04:11:09;;;;;;;;;;;;;;;-144.99;100.00;52588.75;5052381;28;19971;-68
2024/02/04 04:13:35;;;;;;;;;;;;;;;-144.99;100.00;52578.53;5052738;28;20003;-66
2024/02/04 04:16:02;;;;;;;;;;;;;;;-144.99;100.00;52570.38;5053072;28;19975;-68
2024/02/04 04:18:28;;;;;;;;;;;;;;;-144.99;100.00;52582.63;5050571;28;20255;-69
2024/02/04 04:20:55;;;;;;;;;;;;;;;-144.99;100.00;52607.09;5047997;28;20442;-71
2024/02/04 04:23:21;;;;;;;;;;;;;;;-144.99;100.00;52594.84;5048582;28;20294;-70
2024/02/04 04:25:49;;;;;;;;;;;;;;;-144.99;100.00;52578.53;5043749;28;20043;-71
2024/02/04 04:28:15;;;;;;;;;;;;;;;-144.99;100.00;52550.00;5043659;28;20032;-73
2024/02/04 04:30:42;;;;;;;;;;;;;;;-144.99;100.00;52584.66;5047748;28;20406;-73
2024/02/04 04:33:09;;;;;;;;;;;;;;;-144.99;100.00;52594.84;5047894;28;20386;-68
2024/02/04 04:35:35;;;;;;;;;;;;;;;-144.99;100.00;52574.47;5045985;28;20192;-68
2024/02/04 04:38:02;;;;;;;;;;;;;;;-144.99;100.00;52592.81;5050514;28;19952;-68
2024/02/04 04:40:28;;;;;;;;;;;;;;;-144.99;100.00;52598.94;5048285;28;19925;-67
2024/02/04 04:42:56;;;;;;;;;;;;;;;-144.99;100.00;52607.09;5052395;28;20243;-67
2024/02/04 04:45:22;;;;;;;;;;;;;;;-144.99;100.00;52586.69;5046984;28;20017;-67
2024/02/04 04:47:49;;;;;;;;;;;;;;;-144.99;100.00;52603.00;5047314;28;19928;-66
2024/02/04 04:50:15;;;;;;;;;;;;;;;-144.99;100.00;52574.47;5051422;28;19963;-66
2024/02/04 04:52:42;;;;;;;;;;;;;;;-144.99;100.00;52619.31;5053103;28;20088;-66
2024/02/04 04:55:09;;;;;;;;;;;;;;;-144.99;100.00;52537.78;5047716;28;20355;-66
2024/02/04 04:57:35;;;;;;;;;;;;;;;-144.99;100.00;52568.34;5047450;28;20033;-66
2024/02/04 05:00:06;;;;;;;;;;;;;;;-144.99;100.00;52574.47;5047593;28;19990;-66
2024/02/04 05:02:33;;;;;;;;;;;;;;;-144.99;100.00;52598.94;5047014;28;19924;-66
2024/02/04 05:04:59;;;;;;;;;;;;;;;-144.99;100.00;52558.16;5047769;28;20496;-66
2024/02/04 05:07:27;;;;;;;;;;;;;;;-144.99;100.00;52590.78;5046057;28;20305;-64
2024/02/04 05:09:54;;;;;;;;;;;;;;;-144.99;100.00;52586.69;5047423;28;20545;-66
2024/02/04 05:12:20;;;;;;;;;;;;;;;-144.99;100.00;52570.38;5053496;28;20386;-67
2024/02/04 05:14:47;;;;;;;;;;;;;;;-144.99;100.00;52566.31;5050126;28;19978;-67
2024/02/04 05:17:15;;;;;;;;;;;;;;;-144.99;100.00;52588.75;5047603;28;19987;-67
2024/02/04 05:19:42;;;;;;;;;;;;;;;-144.99;100.00;52590.78;5047334;28;20000;-67
2024/02/04 05:22:08;;;;;;;;;;;;;;;-144.99;100.00;52576.50;5052945;28;20170;-67
2024/02/04 05:24:35;;;;;;;;;;;;;;;-144.99;100.00;52590.78;5050137;28;20031;-66
2024/02/04 05:27:01;;;;;;;;;;;;;;;-144.99;100.00;52550.00;5047087;28;20351;-68
2024/02/04 05:29:28;;;;;;;;;;;;;;;-144.99;100.00;52537.78;5045926;28;19925;-69
2024/02/04 05:31:55;;;;;;;;;;;;;;;-144.99;100.00;52596.88;5045767;28;20014;-67
2024/02/04 05:34:22;;;;;;;;;;;;;;;-144.99;100.00;52578.53;5052932;28;20502;-67
2024/02/04 05:36:49;;;;;;;;;;;;;;;-144.99;100.00;52554.09;5050304;28;20099;-68
2024/02/04 05:39:16;;;;;;;;;;;;;;;-144.99;100.00;52594.84;5046335;28;19971;-69
2024/02/04 05:41:43;;;;;;;;;;;;;;;-144.99;100.00;52590.78;5049539;28;20028;-69
2024/02/04 05:44:10;;;;;;;;;;;;;;;-144.99;100.00;52560.19;5049675;28;19928;-68
2024/02/04 05:46:39;;;;;;;;;;;;;;;-144.99;100.00;52574.47;5051919;28;19979;-67
2024/02/04 05:49:06;;;;;;;;;;;;;;;-144.99;100.00;52586.69;5050453;28;20425;-67
2024/02/04 05:51:38;;;;;;;;;;;;;;;-144.99;100.00;52607.09;5044277;28;19965;-66
2024/02/04 05:54:04;;;;;;;;;;;;;;;-144.99;100.00;52578.53;5053509;28;20320;-68
2024/02/04 05:56:31;;;;;;;;;;;;;;;-144.99;100.00;52550.00;5046963;28;19963;-68
2024/02/04 05:58:57;;;;;;;;;;;;;;;-144.99;100.00;52550.00;5047890;28;19972;-69
2024/02/04 06:01:24;;;;;;;;;;;;;;;-144.99;100.00;52543.91;5048764;28;19925;-68
2024/02/04 06:03:50;;;;;;;;;;;;;;;-144.99;100.00;52552.03;5052094;28;20039;-68
2024/02/04 06:06:19;;;;;;;;;;;;;;;-144.99;100.00;52578.53;5053983;28;20316;-68
2024/02/04 06:08:47;;;;;;;;;;;;;;;-144.99;100.00;52560.19;5054901;28;19924;-68
2024/02/04 06:11:14;;;;;;;;;;;;;;;-144.99;100.00;52554.09;5055029;28;19956;-68
2024/02/04 06:13:42;;;;;;;;;;;;;;;-144.99;100.00;52562.25;5051079;28;20009;-68
2024/02/04 06:16:09;;;;;;;;;;;;;;;-144.99;100.00;52586.69;5050438;28;19963;-68
2024/02/04 06:18:37;;;;;;;;;;;;;;;-144.99;100.00;52562.25;5048570;28;19932;-67
2024/02/04 06:21:04;;;;;;;;;;;;;;;-144.99;100.00;52586.69;5052976;28;19951;-70
2024/02/04 06:23:30;;;;;;;;;;;;;;;-144.99;100.00;52570.38;5054172;28;20124;-70
2024/02/04 06:25:58;;;;;;;;;;;;;;;-144.99;100.00;52574.47;5049971;28;20413;-69
2024/02/04 06:28:24;;;;;;;;;;;;;;;-144.99;100.00;52574.47;5050647;28;20055;-69
2024/02/04 06:30:51;;;;;;;;;;;;;;;-144.99;100.00;52576.50;5049800;28;19968;-69
2024/02/04 06:33:17;;;;;;;;;;;;;;;-144.99;100.00;52598.94;5047726;28;19925;-69
2024/02/04 06:35:44;;;;;;;;;;;;;;;-144.99;100.00;52537.78;5050584;28;19974;-69
2024/02/04 06:38:10;;;;;;;;;;;;;;;-144.99;100.00;52566.31;5050581;28;19925;-69
2024/02/04 06:40:37;;;;;;;;;;;;;;;-144.99;100.00;52554.09;5050531;28;20344;-70
2024/02/04 06:43:05;;;;;;;;;;;;;;;-144.99;100.00;52543.91;5038681;28;19929;-69
2024/02/04 06:45:31;;;;;;;;;;;;;;;-144.99;100.00;52611.16;5049318;28;20429;-69
2024/02/04 06:47:58;;;;;;;;;;;;;;;-144.99;100.00;52556.13;5043753;28;20367;-70
2024/02/04 06:50:26;;;;;;;;;;;;;;;-144.99;100.00;52533.69;5048230;28;20043;-70
2024/02/04 06:52:52;;;;;;;;;;;;;;;-144.99;100.00;52586.69;5045014;28;20417;-71
2024/02/04 06:55:19;;;;;;;;;;;;;;;-144.99;100.00;52513.31;5046709;28;19928;-69
2024/02/04 06:57:46;;;;;;;;;;;;;;;-144.99;100.00;52570.38;5053929;28;19925;-70
2024/02/04 07:00:15;;;;;;;;;;;;;;;-144.99;100.00;52545.94;5048990;28;19960;-70
2024/02/04 07:02:42;;;;;;;;;;;;;;;-144.99;100.00;52582.63;5049967;28;19931;-70
2024/02/04 07:05:10;;;;;;;;;;;;;;;-144.99;100.00;52552.03;5054338;28;20436;-70
2024/02/04 07:07:36;;;;;;;;;;;;;;;-144.99;100.00;52586.69;5051443;28;20332;-71
2024/02/04 07:10:03;;;;;;;;;;;;;;;-144.99;100.00;52554.09;5051574;28;19936;-71
2024/02/04 07:12:29;;;;;;;;;;;;;;;-144.99;100.00;52541.84;5049500;28;19937;-70
2024/02/04 07:14:56;;;;;;;;;;;;;;;-144.99;100.00;52570.38;5050797;28;20048;-72
2024/02/04 07:17:24;;;;;;;;;;;;;;;-144.99;100.00;52562.25;5049205;28;20423;-72
2024/02/04 07:19:51;;;;;;;;;;;;;;;-144.99;100.00;52568.34;5052231;28;19924;-76
2024/02/04 07:22:17;;;;;;;;;;;;;;;-144.99;100.00;52550.00;5050607;28;20300;-80
2024/02/04 07:24:44;;;;;;;;;;;;;;;-144.99;100.00;52570.38;5058237;28;20218;-78
2024/02/04 07:27:10;;;;;;;;;;;;;;;-144.99;100.00;52570.38;5057902;28;19964;-80
2024/02/04 07:29:37;;;;;;;;;;;;;;;-144.99;100.00;52584.66;5053847;28;19936;-79
2024/02/04 07:32:04;;;;;;;;;;;;;;;-144.99;100.00;52556.13;5056470;28;20310;-78
2024/02/04 07:34:31;;;;;;;;;;;;;;;-144.99;100.00;52525.56;5064831;28;20011;-78
2024/02/04 07:36:58;;;;;;;;;;;;;;;-144.99;100.00;52523.50;5053945;28;20130;-79
2024/02/04 07:39:24;;;;;;;;;;;;;;;-144.99;100.00;52554.09;5052329;28;19929;-75
2024/02/04 07:41:53;;;;;;;;;;;;;;;-144.99;100.00;52558.16;5048134;28;19931;-75
2024/02/04 07:44:20;;;;;;;;;;;;;;;-144.99;100.00;52556.13;5054020;28;19928;-74
2024/02/04 07:46:46;;;;;;;;;;;;;;;-144.99;100.00;52611.16;5047744;28;19947;-74
2024/02/04 07:49:13;;;;;;;;;;;;;;;-144.99;100.00;52556.13;5046058;28;19959;-73
2024/02/04 07:51:40;;;;;;;;;;;;;;;-144.99;100.00;52594.84;5046615;28;19931;-72
2024/02/04 07:54:07;;;;;;;;;;;;;;;-144.99;100.00;52566.31;5050535;28;20363;-72
2024/02/04 07:56:33;;;;;;;;;;;;;;;-144.99;100.00;52566.31;5058737;28;20314;-72
2024/02/04 07:59:00;;;;;;;;;;;;;;;-144.99;100.00;52570.38;5046580;28;19964;-72
2024/02/04 08:01:26;;;;;;;;;;;;;;;-144.99;100.00;52521.47;5038945;28;20018;-72
2024/02/04 08:03:53;;;;;;;;;;;;;;;-144.99;100.00;52562.25;5057933;28;19971;-71
2024/02/04 08:06:19;;;;;;;;;;;;;;;-144.99;100.00;52541.84;5050777;28;19972;-67
2024/02/04 08:08:47;;;;;;;;;;;;;;;-144.99;100.00;52558.16;5047941;28;19925;-67
2024/02/04 08:11:17;;;;;;;;;;;;;;;-144.99;100.00;52556.13;5044941;28;19924;-68
2024/02/04 08:13:44;;;;;;;;;;;;;;;-144.99;100.00;52568.34;5054742;28;19994;-68
2024/02/04 08:16:10;;;;;;;;;;;;;;;-144.99;100.00;52562.25;5047128;28;19925;-68
2024/02/04 08:18:37;;;;;;;;;;;;;;;-144.99;100.00;52550.00;5044933;28;20015;-68
2024/02/04 08:21:03;;;;;;;;;;;;;;;-144.99;100.00;52590.78;5049693;28;20076;-69
2024/02/04 08:23:30;;;;;;;;;;;;;;;-144.99;100.00;52541.84;5051934;28;19964;-67
2024/02/04 08:25:57;;;;;;;;;;;;;;;-144.99;100.00;52545.94;5052290;28;19983;-70
2024/02/04 08:28:24;;;;;;;;;;;;;;;-144.99;100.00;52545.94;5044654;28;19929;-69
2024/02/04 08:30:51;;;;;;;;;;;;;;;-144.99;100.00;52550.00;5046673;28;19952;-68
2024/02/04 08:33:18;;;;;;;;;;;;;;;-144.99;100.00;52568.34;5049018;28;19976;-71
2024/02/04 08:35:45;;;;;;;;;;;;;;;-144.99;100.00;52562.25;5047455;28;20010;-70
2024/02/04 08:38:11;;;;;;;;;;;;;;;-144.99;100.00;52592.81;5051330;28;20027;-70
2024/02/04 08:40:38;;;;;;;;;;;;;;;-144.99;100.00;52554.09;5044796;28;19984;-70
2024/02/04 08:43:06;;;;;;;;;;;;;;;-144.99;100.00;52558.16;5052981;28;20124;-71
2024/02/04 08:45:32;;;;;;;;;;;;;;;-144.99;100.00;52541.84;5047197;28;20585;-71
2024/02/04 08:47:58;;;;;;;;;;;;;;;-144.99;100.00;52564.28;5049026;28;20077;-70
2024/02/04 08:50:25;;;;;;;;;;;;;;;-144.99;100.00;52578.53;5052722;28;19972;-70
2024/02/04 08:52:52;;;;;;;;;;;;;;;-144.99;100.00;52531.66;5033223;28;19925;-70
2024/02/04 08:55:18;;;;;;;;;;;;;;;-144.99;100.00;52525.56;5046873;28;19968;-72
2024/02/04 08:57:45;;;;;;;;;;;;;;;-144.99;100.00;52525.56;5047814;28;19964;-70
2024/02/04 09:00:14;;;;;;;;;;;;;;;-144.99;100.00;52570.38;5053048;28;19940;-73
2024/02/04 09:02:40;;;;;;;;;;;;;;;-144.99;100.00;52547.97;5042573;28;19925;-70
2024/02/04 09:05:07;;;;;;;;;;;;;;;-144.99;100.00;52550.00;5047281;28;19925;-69
2024/02/04 09:07:34;;;;;;;;;;;;;;;-144.99;100.00;52550.00;5052569;28;19929;-71
2024/02/04 09:10:00;;;;;;;;;;;;;;;-144.99;100.00;52537.78;5049805;28;20458;-72
2024/02/04 09:12:27;;;;;;;;;;;;;;;-144.99;100.00;52525.56;5044750;28;19932;-71
2024/02/04 09:14:53;;;;;;;;;;;;;;;-144.99;100.00;52545.94;5046791;28;20008;-72
2024/02/04 09:17:21;;;;;;;;;;;;;;;-144.99;100.00;52521.47;5049619;28;19970;-70
2024/02/04 09:19:49;;;;;;;;;;;;;;;-144.99;100.00;52578.53;5057733;28;19928;-73
2024/02/04 09:22:15;;;;;;;;;;;;;;;-144.99;100.00;52497.00;5044493;28;19940;-75
2024/02/04 09:24:41;;;;;;;;;;;;;;;-144.99;100.00;52541.84;5048404;28;19924;-75
2024/02/04 09:27:08;;;;;;;;;;;;;;;-144.99;100.00;52586.69;5050954;28;20011;-76
2024/02/04 09:29:35;;;;;;;;;;;;;;;-144.99;100.00;52545.94;5048369;28;20492;-76
2024/02/04 09:32:01;;;;;;;;;;;;;;;-144.99;100.00;52552.03;5048598;28;19928;-76
2024/02/04 09:34:29;;;;;;;;;;;;;;;-144.99;100.00;52562.25;5050131;28;19951;-72
2024/02/04 09:36:56;;;;;;;;;;;;;;;-144.99;100.00;52562.25;5054349;28;20050;-72
2024/02/04 09:39:22;;;;;;;;;;;;;;;-144.99;100.00;52547.97;5058161;28;19924;-73
2024/02/04 09:41:49;;;;;;;;;;;;;;;-144.99;100.00;52562.25;5048515;28;20339;-73
2024/02/04 09:44:16;;;;;;;;;;;;;;;-144.99;100.00;52550.00;5050361;28;20002;-73
2024/02/04 09:46:42;;;;;;;;;;;;;;;-144.99;100.00;52547.97;5056141;28;19999;-73
2024/02/04 09:49:09;;;;;;;;;;;;;;;-144.99;100.00;52543.91;5052352;28;19925;-74
2024/02/04 09:51:37;;;;;;;;;;;;;;;-144.99;100.00;52582.63;5050941;28;19964;-72
2024/02/04 09:54:06;;;;;;;;;;;;;;;-144.99;100.00;52566.31;5048723;28;20435;-72
2024/02/04 09:56:33;;;;;;;;;;;;;;;-144.99;100.00;52566.31;5050776;28;19944;-72
2024/02/04 09:58:59;;;;;;;;;;;;;;;-144.99;100.00;52558.16;5051451;28;19986;-72
2024/02/04 10:01:27;;;;;;;;;;;;;;;-144.99;100.00;52564.28;5051776;28;19974;-72
2024/02/04 10:03:53;;;;;;;;;;;;;;;-144.99;100.00;52545.94;5050110;28;19985;-72
2024/02/04 10:06:20;;;;;;;;;;;;;;;-144.99;100.00;52537.78;5050605;28;20015;-73
2024/02/04 10:08:48;;;;;;;;;;;;;;;-144.99;100.00;52533.69;5055360;28;20000;-73
2024/02/04 10:11:14;;;;;;;;;;;;;;;-144.99;100.00;52598.94;5050666;28;20146;-73
2024/02/04 10:13:45;;;;;;;;;;;;;;;-144.99;100.00;52570.38;5050615;28;19925;-73
2024/02/04 10:16:12;;;;;;;;;;;;;;;-144.99;100.00;52578.53;5046005;28;19925;-73
2024/02/04 10:18:41;;;;;;;;;;;;;;;-144.99;100.00;52529.63;5052717;28;19933;-73
2024/02/04 10:21:15;;;;;;;;;;;;;;;-144.99;100.00;52533.69;5051096;28;20339;-72
2024/02/04 10:23:41;;;;;;;;;;;;;;;-144.99;100.00;52537.78;5052526;28;19972;-72
2024/02/04 10:26:09;;;;;;;;;;;;;;;-144.99;100.00;52582.63;5047627;28;19928;-72
2024/02/04 10:28:36;;;;;;;;;;;;;;;-144.99;100.00;52513.31;5054063;28;19990;-73
2024/02/04 10:31:03;;;;;;;;;;;;;;;-144.99;100.00;52521.47;5049187;28;19968;-73
2024/02/04 10:33:31;;;;;;;;;;;;;;;-144.99;100.00;52570.38;5050401;28;20358;-73
2024/02/04 10:35:57;;;;;;;;;;;;;;;-144.99;100.00;52590.78;5046607;28;20413;-73
2024/02/04 10:38:24;;;;;;;;;;;;;;;-144.99;100.00;52558.16;5044933;28;19972;-72
2024/02/04 10:40:53;;;;;;;;;;;;;;;-144.99;100.00;52533.69;5051204;28;19972;-72
2024/02/04 10:43:23;;;;;;;;;;;;;;;-144.99;99.84;52515.34;5051460;28;19924;-72
2024/02/04 10:45:53;;;;;;;;;;;;;;;-144.99;99.48;52541.84;5050161;28;19935;-72
2024/02/04 10:48:20;;;;;;;;;;;;;;;-144.99;99.45;52554.09;5044409;28;19996;-72
2024/02/04 10:50:48;;;;;;;;;;;;;;;-144.99;99.56;52533.69;5048419;28;20006;-73
2024/02/04 10:53:15;;;;;;;;;;;;;;;-144.99;99.53;52537.78;5051015;28;19964;-72
2024/02/04 10:55:42;;;;;;;;;;;;;;;-144.99;99.90;52545.94;5054327;28;19948;-73
2024/02/04 10:58:09;;;;;;;;;;;;;;;-144.99;98.99;52560.19;5052248;28;19967;-72
2024/02/04 11:00:37;;;;;;;;;;;;;;;-144.99;98.72;52554.09;5055356;28;20305;-72
2024/02/04 11:03:04;;;;;;;;;;;;;;;-144.99;98.94;52521.47;5053363;28;20067;-73
2024/02/04 11:05:34;;;;;;;;;;;;;;;-144.99;99.46;52562.25;5043493;28;19928;-73
2024/02/04 11:08:03;;;;;;;;;;;;;;;-144.99;99.12;52533.69;5051297;28;20059;-72
2024/02/04 11:10:30;;;;;;;;;;;;;;;-144.99;99.10;52554.09;5048720;28;19932;-72
2024/02/04 11:12:58;;;;;;;;;;;;;;;-144.99;99.21;52550.00;5048317;28;20413;-73
2024/02/04 11:15:27;;;;;;;;;;;;;;;-144.99;99.27;52550.00;5031179;28;20322;-71
2024/02/04 11:18:18;;;;;;;;;;;;;;;-144.99;99.31;52550.00;5055391;28;19935;-72
2024/02/04 11:20:55;;;;;;;;;;;;;;;-144.99;99.29;52541.84;5050951;28;20332;-72
2024/02/04 11:23:33;;;;;;;;;;;;;;;-144.99;98.61;52586.69;5052330;28;19924;-74
2024/02/04 11:26:00;;;;;;;;;;;;;;;-144.99;98.80;52554.09;5043673;28;19936;-72
2024/02/04 11:28:27;;;;;;;;;;;;;;;-144.99;99.41;52545.94;5049289;28;20031;-73
2024/02/04 11:30:54;;;;;;;;;;;;;;;-144.99;98.57;52529.63;5048842;28;20427;-73
2024/02/04 11:33:22;;;;;;;;;;;;;;;-144.99;98.21;52547.97;5050341;28;19956;-72
2024/02/04 11:35:59;;;;;;;;;;;;;;;-144.99;98.58;52517.41;5042018;28;19976;-73
2024/02/04 11:38:30;;;;;;;;;;;;;;;-144.99;98.16;52554.09;5051280;28;20034;-73
2024/02/04 11:40:57;;;;;;;;;;;;;;;-144.99;98.14;52521.47;5052172;28;20373;-73
2024/02/04 11:43:24;;;;;;;;;;;;;;;-144.99;98.00;52511.28;5049221;28;19925;-72
2024/02/04 11:45:52;;;;;;;;;;;;;;;-144.99;97.95;52558.16;5049873;28;19932;-73
2024/02/04 11:48:20;;;;;;;;;;;;;;;-144.99;98.15;52550.00;5045700;28;20345;-73
2024/02/04 11:50:53;;;;;;;;;;;;;;;-144.99;97.84;52537.78;5048412;28;19947;-73
2024/02/04 11:53:19;;;;;;;;;;;;;;;-144.99;96.90;52480.72;5050659;28;20339;-73
2024/02/04 11:55:46;;;;;;;;;;;;;;;-144.99;98.00;52550.00;5051478;28;19925;-74
2024/02/04 11:58:12;;;;;;;;;;;;;;;-144.99;97.13;52525.56;5048536;28;19932;-74
2024/02/04 12:00:45;;;;;;;;;;;;;;;-144.99;97.39;52578.53;5046139;28;20160;-72
2024/02/04 12:03:11;;;;;;;;;;;;;;;-144.99;97.73;52552.03;5045032;28;20023;-73
2024/02/04 12:05:38;;;;;;;;;;;;;;;-144.99;96.81;52545.94;5052202;28;20005;-73
2024/02/04 12:08:07;;;;;;;;;;;;;;;-144.99;96.93;52562.25;5043045;28;19928;-73
2024/02/04 12:10:35;;;;;;;;;;;;;;;-144.99;96.70;52541.84;5046821;28;19932;-73
2024/02/04 12:13:02;;;;;;;;;;;;;;;-144.99;96.58;52525.56;5046215;28;20427;-74
2024/02/04 12:15:30;;;;;;;;;;;;;;;-144.99;96.98;52576.50;5047366;28;19970;-72
2024/02/04 12:17:56;;;;;;;;;;;;;;;-144.99;96.96;52564.28;5047715;28;19925;-73